sensor_id;sensor_type;location;lat;lon;timestamp;P1;durP1;ratioP1;P2;durP2;ratioP2
35048;SDS011;21236;48.740;-3.446;2022-09-03T00:00:53;64.05;;;31.17;;
35048;SDS011;21236;48.740;-3.446;2022-09-03T00:06:19;63.45;;;31.63;;
35048;SDS011;21236;48.740;-3.446;2022-09-03T00:08:54;62.20;;;30.58;;
35048;SDS011;21236;48.740;-3.446;2022-09-03T00:11:28;61.33;;;30.55;;
35048;SDS011;21236;48.740;-3.446;2022-09-03T00:14:06;64.38;;;27.98;;
35048;SDS011;21236;48.740;-3.446;2022-09-03T00:16:42;64.38;;;29.13;;
35048;SDS011;21236;48.740;-3.446;2022-09-03T00:19:09;57.42;;;28.45;;
35048;SDS011;21236;48.740;-3.446;2022-09-03T00:21:37;60.20;;;29.17;;
35048;SDS011;21236;48.740;-3.446;2022-09-03T00:24:05;63.10;;;31.08;;
35048;SDS011;21236;48.740;-3.446;2022-09-03T00:26:33;60.20;;;30.85;;
35048;SDS011;21236;48.740;-3.446;2022-09-03T00:29:14;73.30;;;31.33;;
35048;SDS011;21236;48.740;-3.446;2022-09-03T00:31:47;62.15;;;29.42;;
35048;SDS011;21236;48.740;-3.446;2022-09-03T00:34:28;59.55;;;29.20;;
35048;SDS011;21236;48.740;-3.446;2022-09-03T00:36:55;71.47;;;30.77;;
35048;SDS011;21236;48.740;-3.446;2022-09-03T00:39:23;60.80;;;31.02;;
35048;SDS011;21236;48.740;-3.446;2022-09-03T00:59:49;56.78;;;27.27;;
35048;SDS011;21236;48.740;-3.446;2022-09-03T01:02:31;50.55;;;24.13;;
35048;SDS011;21236;48.740;-3.446;2022-09-03T01:15:00;50.92;;;26.00;;
35048;SDS011;21236;48.740;-3.446;2022-09-03T01:17:32;52.72;;;26.27;;
35048;SDS011;21236;48.740;-3.446;2022-09-03T01:20:11;52.55;;;25.88;;
35048;SDS011;21236;48.740;-3.446;2022-09-03T01:30:35;48.85;;;26.60;;
35048;SDS011;21236;48.740;-3.446;2022-09-03T01:33:09;46.63;;;25.33;;
35048;SDS011;21236;48.740;-3.446;2022-09-03T01:35:40;47.33;;;25.15;;
35048;SDS011;21236;48.740;-3.446;2022-09-03T01:43:35;49.85;;;25.35;;
35048;SDS011;21236;48.740;-3.446;2022-09-03T01:48:48;51.10;;;26.00;;
35048;SDS011;21236;48.740;-3.446;2022-09-03T01:51:24;53.60;;;25.88;;
35048;SDS011;21236;48.740;-3.446;2022-09-03T01:56:44;48.20;;;25.48;;
35048;SDS011;21236;48.740;-3.446;2022-09-03T01:59:17;49.55;;;26.48;;
35048;SDS011;21236;48.740;-3.446;2022-09-03T02:02:04;50.00;;;25.55;;
35048;SDS011;21236;48.740;-3.446;2022-09-03T02:04:32;46.35;;;24.15;;
35048;SDS011;21236;48.740;-3.446;2022-09-03T02:06:59;48.55;;;25.15;;
35048;SDS011;21236;48.740;-3.446;2022-09-03T02:09:26;47.50;;;25.02;;
35048;SDS011;21236;48.740;-3.446;2022-09-03T02:11:54;48.20;;;24.77;;
35048;SDS011;21236;48.740;-3.446;2022-09-03T02:14:21;47.17;;;23.38;;
35048;SDS011;21236;48.740;-3.446;2022-09-03T02:16:48;45.58;;;24.10;;
35048;SDS011;21236;48.740;-3.446;2022-09-03T02:19:14;48.95;;;23.80;;
35048;SDS011;21236;48.740;-3.446;2022-09-03T02:21:50;44.08;;;24.65;;
35048;SDS011;21236;48.740;-3.446;2022-09-03T02:24:16;47.40;;;23.10;;
35048;SDS011;21236;48.740;-3.446;2022-09-03T02:26:43;38.10;;;21.42;;
35048;SDS011;21236;48.740;-3.446;2022-09-03T02:29:10;38.03;;;21.20;;
35048;SDS011;21236;48.740;-3.446;2022-09-03T02:31:37;47.50;;;20.48;;
35048;SDS011;21236;48.740;-3.446;2022-09-03T02:34:03;39.50;;;20.60;;
35048;SDS011;21236;48.740;-3.446;2022-09-03T02:36:31;34.60;;;19.23;;
35048;SDS011;21236;48.740;-3.446;2022-09-03T02:38:58;36.78;;;19.48;;
35048;SDS011;21236;48.740;-3.446;2022-09-03T02:41:24;38.10;;;19.13;;
35048;SDS011;21236;48.740;-3.446;2022-09-03T02:46:53;40.55;;;18.42;;
35048;SDS011;21236;48.740;-3.446;2022-09-03T02:49:19;31.75;;;16.13;;
35048;SDS011;21236;48.740;-3.446;2022-09-03T02:51:46;36.38;;;18.20;;
35048;SDS011;21236;48.740;-3.446;2022-09-03T02:54:12;38.08;;;18.45;;
35048;SDS011;21236;48.740;-3.446;2022-09-03T02:56:38;39.05;;;19.70;;
35048;SDS011;21236;48.740;-3.446;2022-09-03T02:59:05;30.45;;;17.67;;
35048;SDS011;21236;48.740;-3.446;2022-09-03T03:01:31;32.50;;;17.83;;
35048;SDS011;21236;48.740;-3.446;2022-09-03T03:03:57;34.63;;;17.75;;
35048;SDS011;21236;48.740;-3.446;2022-09-03T03:06:23;32.10;;;18.23;;
35048;SDS011;21236;48.740;-3.446;2022-09-03T03:08:50;30.48;;;17.60;;
35048;SDS011;21236;48.740;-3.446;2022-09-03T03:11:17;33.45;;;18.58;;
35048;SDS011;21236;48.740;-3.446;2022-09-03T03:13:44;38.05;;;18.77;;
35048;SDS011;21236;48.740;-3.446;2022-09-03T03:16:11;31.75;;;16.30;;
35048;SDS011;21236;48.740;-3.446;2022-09-03T03:18:38;33.28;;;18.48;;
35048;SDS011;21236;48.740;-3.446;2022-09-03T03:21:04;33.30;;;18.33;;
35048;SDS011;21236;48.740;-3.446;2022-09-03T03:23:31;30.83;;;16.83;;
35048;SDS011;21236;48.740;-3.446;2022-09-03T03:26:01;35.88;;;18.08;;
35048;SDS011;21236;48.740;-3.446;2022-09-03T03:28:27;33.35;;;18.45;;
35048;SDS011;21236;48.740;-3.446;2022-09-03T03:30:53;33.35;;;18.27;;
35048;SDS011;21236;48.740;-3.446;2022-09-03T03:33:19;34.03;;;16.92;;
35048;SDS011;21236;48.740;-3.446;2022-09-03T03:35:46;30.10;;;17.17;;
35048;SDS011;21236;48.740;-3.446;2022-09-03T03:38:12;35.17;;;17.00;;
35048;SDS011;21236;48.740;-3.446;2022-09-03T03:40:38;33.85;;;17.58;;
35048;SDS011;21236;48.740;-3.446;2022-09-03T03:43:04;28.52;;;16.30;;
35048;SDS011;21236;48.740;-3.446;2022-09-03T03:45:30;29.35;;;17.48;;
35048;SDS011;21236;48.740;-3.446;2022-09-03T03:47:57;32.55;;;17.10;;
35048;SDS011;21236;48.740;-3.446;2022-09-03T03:50:24;34.85;;;17.23;;
35048;SDS011;21236;48.740;-3.446;2022-09-03T03:52:50;31.88;;;15.77;;
35048;SDS011;21236;48.740;-3.446;2022-09-03T03:55:16;29.80;;;15.57;;
35048;SDS011;21236;48.740;-3.446;2022-09-03T03:57:42;32.85;;;16.27;;
35048;SDS011;21236;48.740;-3.446;2022-09-03T04:00:11;29.35;;;16.00;;
35048;SDS011;21236;48.740;-3.446;2022-09-03T04:02:40;30.17;;;16.50;;
35048;SDS011;21236;48.740;-3.446;2022-09-03T04:05:06;36.75;;;17.92;;
35048;SDS011;21236;48.740;-3.446;2022-09-03T04:07:32;29.10;;;16.60;;
35048;SDS011;21236;48.740;-3.446;2022-09-03T04:09:58;28.00;;;16.55;;
35048;SDS011;21236;48.740;-3.446;2022-09-03T04:12:25;31.55;;;16.45;;
35048;SDS011;21236;48.740;-3.446;2022-09-03T04:14:51;34.72;;;17.52;;
35048;SDS011;21236;48.740;-3.446;2022-09-03T04:17:17;29.52;;;17.02;;
35048;SDS011;21236;48.740;-3.446;2022-09-03T04:19:43;31.27;;;16.35;;
35048;SDS011;21236;48.740;-3.446;2022-09-03T04:22:12;26.13;;;15.60;;
35048;SDS011;21236;48.740;-3.446;2022-09-03T04:24:39;26.50;;;15.93;;
35048;SDS011;21236;48.740;-3.446;2022-09-03T04:27:05;28.63;;;16.33;;
35048;SDS011;21236;48.740;-3.446;2022-09-03T04:29:32;29.42;;;16.60;;
35048;SDS011;21236;48.740;-3.446;2022-09-03T04:31:59;28.60;;;16.10;;
35048;SDS011;21236;48.740;-3.446;2022-09-03T04:34:44;28.17;;;16.20;;
35048;SDS011;21236;48.740;-3.446;2022-09-03T04:37:10;30.85;;;15.85;;
35048;SDS011;21236;48.740;-3.446;2022-09-03T04:39:36;30.73;;;16.30;;
35048;SDS011;21236;48.740;-3.446;2022-09-03T04:42:03;28.00;;;16.05;;
35048;SDS011;21236;48.740;-3.446;2022-09-03T04:44:29;28.45;;;15.18;;
35048;SDS011;21236;48.740;-3.446;2022-09-03T04:46:55;30.20;;;15.60;;
35048;SDS011;21236;48.740;-3.446;2022-09-03T04:49:21;22.60;;;15.05;;
35048;SDS011;21236;48.740;-3.446;2022-09-03T04:51:49;28.30;;;16.33;;
35048;SDS011;21236;48.740;-3.446;2022-09-03T04:54:15;26.33;;;16.08;;
35048;SDS011;21236;48.740;-3.446;2022-09-03T04:56:41;29.88;;;15.07;;
35048;SDS011;21236;48.740;-3.446;2022-09-03T04:59:07;34.70;;;17.35;;
35048;SDS011;21236;48.740;-3.446;2022-09-03T05:01:34;26.92;;;16.25;;
35048;SDS011;21236;48.740;-3.446;2022-09-03T05:04:01;32.90;;;16.65;;
35048;SDS011;21236;48.740;-3.446;2022-09-03T05:06:27;28.35;;;16.33;;
35048;SDS011;21236;48.740;-3.446;2022-09-03T05:08:54;29.83;;;16.38;;
35048;SDS011;21236;48.740;-3.446;2022-09-03T05:11:20;35.70;;;16.63;;
35048;SDS011;21236;48.740;-3.446;2022-09-03T05:13:47;28.58;;;16.73;;
35048;SDS011;21236;48.740;-3.446;2022-09-03T05:16:14;29.10;;;15.85;;
35048;SDS011;21236;48.740;-3.446;2022-09-03T05:18:40;31.13;;;15.43;;
35048;SDS011;21236;48.740;-3.446;2022-09-03T05:21:16;28.63;;;15.70;;
35048;SDS011;21236;48.740;-3.446;2022-09-03T05:23:43;27.27;;;15.35;;
35048;SDS011;21236;48.740;-3.446;2022-09-03T05:26:14;26.27;;;13.85;;
35048;SDS011;21236;48.740;-3.446;2022-09-03T05:28:41;26.38;;;15.40;;
35048;SDS011;21236;48.740;-3.446;2022-09-03T05:31:08;26.02;;;14.80;;
35048;SDS011;21236;48.740;-3.446;2022-09-03T05:33:35;26.67;;;15.38;;
35048;SDS011;21236;48.740;-3.446;2022-09-03T05:36:03;28.42;;;15.60;;
35048;SDS011;21236;48.740;-3.446;2022-09-03T05:38:29;34.13;;;17.60;;
35048;SDS011;21236;48.740;-3.446;2022-09-03T05:40:59;25.63;;;14.63;;
35048;SDS011;21236;48.740;-3.446;2022-09-03T05:43:26;25.73;;;14.93;;
35048;SDS011;21236;48.740;-3.446;2022-09-03T05:45:56;36.83;;;15.95;;
35048;SDS011;21236;48.740;-3.446;2022-09-03T05:48:22;29.80;;;15.65;;
35048;SDS011;21236;48.740;-3.446;2022-09-03T05:50:48;26.30;;;14.52;;
35048;SDS011;21236;48.740;-3.446;2022-09-03T05:53:14;27.75;;;16.40;;
35048;SDS011;21236;48.740;-3.446;2022-09-03T05:55:41;27.00;;;15.02;;
35048;SDS011;21236;48.740;-3.446;2022-09-03T05:58:07;34.00;;;16.45;;
35048;SDS011;21236;48.740;-3.446;2022-09-03T06:00:33;27.30;;;15.77;;
35048;SDS011;21236;48.740;-3.446;2022-09-03T06:03:01;31.27;;;15.82;;
35048;SDS011;21236;48.740;-3.446;2022-09-03T06:05:27;24.95;;;15.13;;
35048;SDS011;21236;48.740;-3.446;2022-09-03T06:07:53;27.85;;;15.57;;
35048;SDS011;21236;48.740;-3.446;2022-09-03T06:10:19;30.13;;;17.27;;
35048;SDS011;21236;48.740;-3.446;2022-09-03T06:12:45;29.70;;;17.48;;
35048;SDS011;21236;48.740;-3.446;2022-09-03T06:15:15;27.73;;;15.48;;
35048;SDS011;21236;48.740;-3.446;2022-09-03T06:17:42;28.15;;;15.75;;
35048;SDS011;21236;48.740;-3.446;2022-09-03T06:20:08;34.63;;;16.92;;
35048;SDS011;21236;48.740;-3.446;2022-09-03T06:22:34;28.65;;;17.20;;
35048;SDS011;21236;48.740;-3.446;2022-09-03T06:25:00;34.28;;;18.00;;
35048;SDS011;21236;48.740;-3.446;2022-09-03T06:27:27;31.15;;;17.65;;
35048;SDS011;21236;48.740;-3.446;2022-09-03T06:29:53;31.08;;;18.27;;
35048;SDS011;21236;48.740;-3.446;2022-09-03T06:32:21;34.22;;;18.27;;
35048;SDS011;21236;48.740;-3.446;2022-09-03T06:34:47;37.10;;;18.85;;
35048;SDS011;21236;48.740;-3.446;2022-09-03T06:37:13;38.17;;;20.40;;
35048;SDS011;21236;48.740;-3.446;2022-09-03T06:39:39;36.58;;;19.65;;
35048;SDS011;21236;48.740;-3.446;2022-09-03T06:42:05;37.67;;;20.50;;
35048;SDS011;21236;48.740;-3.446;2022-09-03T06:44:35;31.20;;;18.33;;
35048;SDS011;21236;48.740;-3.446;2022-09-03T06:47:01;32.42;;;19.42;;
35048;SDS011;21236;48.740;-3.446;2022-09-03T06:49:27;42.92;;;20.65;;
35048;SDS011;21236;48.740;-3.446;2022-09-03T06:51:54;36.47;;;19.70;;
35048;SDS011;21236;48.740;-3.446;2022-09-03T06:54:21;33.90;;;20.02;;
35048;SDS011;21236;48.740;-3.446;2022-09-03T06:56:49;31.70;;;19.52;;
35048;SDS011;21236;48.740;-3.446;2022-09-03T06:59:15;35.10;;;20.10;;
35048;SDS011;21236;48.740;-3.446;2022-09-03T07:01:41;40.42;;;20.25;;
35048;SDS011;21236;48.740;-3.446;2022-09-03T07:04:09;34.70;;;19.83;;
35048;SDS011;21236;48.740;-3.446;2022-09-03T07:06:37;31.92;;;18.48;;
35048;SDS011;21236;48.740;-3.446;2022-09-03T07:09:04;31.13;;;17.92;;
35048;SDS011;21236;48.740;-3.446;2022-09-03T07:11:31;36.92;;;18.73;;
35048;SDS011;21236;48.740;-3.446;2022-09-03T07:14:00;31.42;;;18.17;;
35048;SDS011;21236;48.740;-3.446;2022-09-03T07:16:27;38.03;;;18.55;;
35048;SDS011;21236;48.740;-3.446;2022-09-03T07:18:53;32.55;;;17.33;;
35048;SDS011;21236;48.740;-3.446;2022-09-03T07:21:21;33.05;;;16.73;;
35048;SDS011;21236;48.740;-3.446;2022-09-03T07:23:48;27.58;;;14.98;;
35048;SDS011;21236;48.740;-3.446;2022-09-03T07:26:17;27.85;;;14.65;;
35048;SDS011;21236;48.740;-3.446;2022-09-03T07:28:46;34.03;;;14.82;;
35048;SDS011;21236;48.740;-3.446;2022-09-03T07:31:17;24.52;;;14.20;;
35048;SDS011;21236;48.740;-3.446;2022-09-03T07:33:44;25.50;;;14.93;;
35048;SDS011;21236;48.740;-3.446;2022-09-03T07:36:12;28.13;;;13.65;;
35048;SDS011;21236;48.740;-3.446;2022-09-03T07:38:40;23.60;;;12.65;;
35048;SDS011;21236;48.740;-3.446;2022-09-03T07:41:07;21.98;;;12.45;;
35048;SDS011;21236;48.740;-3.446;2022-09-03T07:43:34;24.90;;;11.73;;
35048;SDS011;21236;48.740;-3.446;2022-09-03T07:46:01;22.77;;;12.07;;
35048;SDS011;21236;48.740;-3.446;2022-09-03T07:48:27;22.73;;;11.40;;
35048;SDS011;21236;48.740;-3.446;2022-09-03T07:50:57;22.45;;;11.30;;
35048;SDS011;21236;48.740;-3.446;2022-09-03T07:53:25;20.02;;;11.10;;
35048;SDS011;21236;48.740;-3.446;2022-09-03T07:55:51;20.38;;;10.00;;
35048;SDS011;21236;48.740;-3.446;2022-09-03T07:58:18;21.98;;;9.65;;
35048;SDS011;21236;48.740;-3.446;2022-09-03T08:00:48;17.90;;;10.25;;
35048;SDS011;21236;48.740;-3.446;2022-09-03T08:03:14;20.27;;;9.82;;
35048;SDS011;21236;48.740;-3.446;2022-09-03T08:05:40;17.75;;;9.70;;
35048;SDS011;21236;48.740;-3.446;2022-09-03T08:08:07;13.95;;;8.45;;
35048;SDS011;21236;48.740;-3.446;2022-09-03T08:10:34;16.48;;;9.95;;
35048;SDS011;21236;48.740;-3.446;2022-09-03T08:13:00;27.10;;;9.50;;
35048;SDS011;21236;48.740;-3.446;2022-09-03T08:15:30;13.02;;;8.02;;
35048;SDS011;21236;48.740;-3.446;2022-09-03T08:17:56;16.60;;;8.27;;
35048;SDS011;21236;48.740;-3.446;2022-09-03T08:20:23;19.30;;;8.07;;
35048;SDS011;21236;48.740;-3.446;2022-09-03T08:22:49;13.07;;;7.72;;
35048;SDS011;21236;48.740;-3.446;2022-09-03T08:25:15;12.55;;;6.88;;
35048;SDS011;21236;48.740;-3.446;2022-09-03T08:27:41;13.35;;;6.45;;
35048;SDS011;21236;48.740;-3.446;2022-09-03T08:30:07;12.88;;;6.10;;
35048;SDS011;21236;48.740;-3.446;2022-09-03T08:32:39;15.63;;;5.70;;
35048;SDS011;21236;48.740;-3.446;2022-09-03T08:35:05;11.20;;;5.15;;
35048;SDS011;21236;48.740;-3.446;2022-09-03T08:37:33;13.93;;;4.75;;
35048;SDS011;21236;48.740;-3.446;2022-09-03T08:39:59;9.25;;;4.53;;
35048;SDS011;21236;48.740;-3.446;2022-09-03T08:42:32;11.98;;;4.60;;
35048;SDS011;21236;48.740;-3.446;2022-09-03T08:45:01;8.65;;;3.58;;
35048;SDS011;21236;48.740;-3.446;2022-09-03T08:52:39;9.88;;;3.38;;
35048;SDS011;21236;48.740;-3.446;2022-09-03T08:57:46;9.02;;;2.80;;
35048;SDS011;21236;48.740;-3.446;2022-09-03T09:00:13;7.15;;;3.03;;
35048;SDS011;21236;48.740;-3.446;2022-09-03T09:10:19;11.90;;;2.88;;
35048;SDS011;21236;48.740;-3.446;2022-09-03T09:15:32;7.28;;;2.72;;
35048;SDS011;21236;48.740;-3.446;2022-09-03T09:23:07;9.55;;;3.53;;
35048;SDS011;21236;48.740;-3.446;2022-09-03T09:25:38;10.88;;;2.80;;
35048;SDS011;21236;48.740;-3.446;2022-09-03T09:28:15;7.28;;;2.47;;
35048;SDS011;21236;48.740;-3.446;2022-09-03T09:30:42;6.68;;;3.08;;
35048;SDS011;21236;48.740;-3.446;2022-09-03T09:33:09;6.60;;;2.60;;
35048;SDS011;21236;48.740;-3.446;2022-09-03T09:35:35;8.48;;;2.58;;
35048;SDS011;21236;48.740;-3.446;2022-09-03T09:38:05;4.55;;;2.38;;
35048;SDS011;21236;48.740;-3.446;2022-09-03T09:40:39;12.77;;;3.08;;
35048;SDS011;21236;48.740;-3.446;2022-09-03T09:43:06;9.40;;;2.50;;
35048;SDS011;21236;48.740;-3.446;2022-09-03T09:45:35;6.20;;;2.20;;
35048;SDS011;21236;48.740;-3.446;2022-09-03T09:48:01;12.93;;;3.75;;
35048;SDS011;21236;48.740;-3.446;2022-09-03T09:50:28;7.43;;;1.95;;
35048;SDS011;21236;48.740;-3.446;2022-09-03T09:53:08;6.78;;;3.17;;
35048;SDS011;21236;48.740;-3.446;2022-09-03T09:55:54;6.28;;;2.45;;
35048;SDS011;21236;48.740;-3.446;2022-09-03T09:58:23;6.20;;;2.50;;
35048;SDS011;21236;48.740;-3.446;2022-09-03T10:03:38;6.35;;;2.50;;
35048;SDS011;21236;48.740;-3.446;2022-09-03T10:06:08;5.53;;;2.05;;
35048;SDS011;21236;48.740;-3.446;2022-09-03T10:09:12;5.38;;;2.15;;
35048;SDS011;21236;48.740;-3.446;2022-09-03T10:11:49;8.98;;;2.20;;
35048;SDS011;21236;48.740;-3.446;2022-09-03T10:14:24;9.00;;;2.10;;
35048;SDS011;21236;48.740;-3.446;2022-09-03T10:17:04;7.60;;;1.85;;
35048;SDS011;21236;48.740;-3.446;2022-09-03T10:19:39;18.77;;;2.72;;
35048;SDS011;21236;48.740;-3.446;2022-09-03T10:22:11;9.52;;;2.42;;
35048;SDS011;21236;48.740;-3.446;2022-09-03T10:24:40;8.40;;;2.30;;
35048;SDS011;21236;48.740;-3.446;2022-09-03T10:27:13;8.68;;;2.47;;
35048;SDS011;21236;48.740;-3.446;2022-09-03T10:29:42;8.45;;;2.28;;
35048;SDS011;21236;48.740;-3.446;2022-09-03T10:32:53;7.68;;;2.25;;
35048;SDS011;21236;48.740;-3.446;2022-09-03T10:40:37;5.63;;;1.83;;
35048;SDS011;21236;48.740;-3.446;2022-09-03T10:45:45;9.27;;;2.63;;
35048;SDS011;21236;48.740;-3.446;2022-09-03T10:50:51;3.95;;;2.10;;
35048;SDS011;21236;48.740;-3.446;2022-09-03T11:06:28;8.70;;;1.85;;
35048;SDS011;21236;48.740;-3.446;2022-09-03T11:08:58;5.97;;;1.67;;
35048;SDS011;21236;48.740;-3.446;2022-09-03T11:11:35;6.73;;;1.90;;
35048;SDS011;21236;48.740;-3.446;2022-09-03T11:14:09;7.15;;;1.90;;
35048;SDS011;21236;48.740;-3.446;2022-09-03T11:19:08;9.35;;;1.70;;
35048;SDS011;21236;48.740;-3.446;2022-09-03T11:21:37;5.05;;;1.83;;
35048;SDS011;21236;48.740;-3.446;2022-09-03T11:24:08;4.72;;;1.90;;
35048;SDS011;21236;48.740;-3.446;2022-09-03T11:26:37;3.67;;;1.95;;
35048;SDS011;21236;48.740;-3.446;2022-09-03T11:29:07;7.53;;;1.73;;
35048;SDS011;21236;48.740;-3.446;2022-09-03T11:31:37;5.90;;;1.98;;
35048;SDS011;21236;48.740;-3.446;2022-09-03T11:34:26;3.75;;;1.60;;
35048;SDS011;21236;48.740;-3.446;2022-09-03T11:39:38;2.17;;;1.33;;
35048;SDS011;21236;48.740;-3.446;2022-09-03T11:42:08;6.80;;;2.10;;
35048;SDS011;21236;48.740;-3.446;2022-09-03T11:47:11;1.60;;;1.20;;
35048;SDS011;21236;48.740;-3.446;2022-09-03T11:49:42;7.07;;;1.70;;
35048;SDS011;21236;48.740;-3.446;2022-09-03T11:52:10;8.32;;;1.90;;
35048;SDS011;21236;48.740;-3.446;2022-09-03T11:54:42;4.55;;;1.60;;
35048;SDS011;21236;48.740;-3.446;2022-09-03T11:57:13;3.80;;;1.42;;
35048;SDS011;21236;48.740;-3.446;2022-09-03T11:59:40;3.80;;;1.50;;
35048;SDS011;21236;48.740;-3.446;2022-09-03T12:02:26;4.85;;;1.95;;
35048;SDS011;21236;48.740;-3.446;2022-09-03T12:13:20;5.95;;;2.00;;
35048;SDS011;21236;48.740;-3.446;2022-09-03T12:15:53;5.53;;;1.73;;
35048;SDS011;21236;48.740;-3.446;2022-09-03T12:18:28;6.25;;;1.60;;
35048;SDS011;21236;48.740;-3.446;2022-09-03T12:28:23;5.57;;;2.05;;
35048;SDS011;21236;48.740;-3.446;2022-09-03T12:30:50;2.97;;;1.60;;
35048;SDS011;21236;48.740;-3.446;2022-09-03T12:33:17;4.30;;;1.63;;
35048;SDS011;21236;48.740;-3.446;2022-09-03T12:35:54;6.13;;;1.80;;
35048;SDS011;21236;48.740;-3.446;2022-09-03T12:38:24;4.78;;;1.98;;
35048;SDS011;21236;48.740;-3.446;2022-09-03T12:40:50;4.70;;;1.65;;
35048;SDS011;21236;48.740;-3.446;2022-09-03T12:43:17;6.72;;;1.80;;
35048;SDS011;21236;48.740;-3.446;2022-09-03T12:45:45;6.70;;;1.80;;
35048;SDS011;21236;48.740;-3.446;2022-09-03T12:48:11;6.38;;;1.63;;
35048;SDS011;21236;48.740;-3.446;2022-09-03T12:50:40;5.95;;;1.70;;
35048;SDS011;21236;48.740;-3.446;2022-09-03T12:53:06;5.32;;;1.80;;
35048;SDS011;21236;48.740;-3.446;2022-09-03T12:55:52;6.13;;;1.48;;
35048;SDS011;21236;48.740;-3.446;2022-09-03T12:58:46;7.47;;;1.92;;
35048;SDS011;21236;48.740;-3.446;2022-09-03T13:01:35;4.45;;;1.45;;
35048;SDS011;21236;48.740;-3.446;2022-09-03T13:04:17;2.88;;;1.42;;
35048;SDS011;21236;48.740;-3.446;2022-09-03T13:09:10;9.63;;;1.77;;
35048;SDS011;21236;48.740;-3.446;2022-09-03T13:11:38;4.43;;;1.90;;
35048;SDS011;21236;48.740;-3.446;2022-09-03T13:14:06;4.45;;;1.83;;
35048;SDS011;21236;48.740;-3.446;2022-09-03T13:27:00;11.18;;;1.90;;
35048;SDS011;21236;48.740;-3.446;2022-09-03T13:32:00;6.05;;;1.33;;
35048;SDS011;21236;48.740;-3.446;2022-09-03T13:34:35;6.43;;;1.70;;
35048;SDS011;21236;48.740;-3.446;2022-09-03T13:39:34;4.53;;;2.08;;
35048;SDS011;21236;48.740;-3.446;2022-09-03T13:42:02;3.72;;;1.70;;
35048;SDS011;21236;48.740;-3.446;2022-09-03T13:49:49;5.35;;;1.50;;
35048;SDS011;21236;48.740;-3.446;2022-09-03T13:53:29;5.13;;;1.50;;
35048;SDS011;21236;48.740;-3.446;2022-09-03T14:00:28;4.10;;;1.60;;
35048;SDS011;21236;48.740;-3.446;2022-09-03T14:08:52;8.30;;;1.75;;
35048;SDS011;21236;48.740;-3.446;2022-09-03T14:11:31;4.87;;;1.60;;
35048;SDS011;21236;48.740;-3.446;2022-09-03T14:14:15;4.18;;;2.10;;
35048;SDS011;21236;48.740;-3.446;2022-09-03T14:16:46;8.07;;;2.88;;
35048;SDS011;21236;48.740;-3.446;2022-09-03T14:19:22;10.52;;;2.55;;
35048;SDS011;21236;48.740;-3.446;2022-09-03T14:21:58;3.55;;;1.85;;
35048;SDS011;21236;48.740;-3.446;2022-09-03T14:24:28;4.65;;;1.40;;
35048;SDS011;21236;48.740;-3.446;2022-09-03T14:26:59;2.88;;;1.73;;
35048;SDS011;21236;48.740;-3.446;2022-09-03T14:29:30;5.82;;;1.85;;
35048;SDS011;21236;48.740;-3.446;2022-09-03T14:37:23;5.32;;;1.75;;
35048;SDS011;21236;48.740;-3.446;2022-09-03T14:47:35;7.63;;;2.17;;
35048;SDS011;21236;48.740;-3.446;2022-09-03T14:52:57;5.43;;;1.50;;
35048;SDS011;21236;48.740;-3.446;2022-09-03T14:58:13;3.42;;;1.45;;
35048;SDS011;21236;48.740;-3.446;2022-09-03T15:06:36;5.93;;;1.73;;
35048;SDS011;21236;48.740;-3.446;2022-09-03T15:11:42;6.43;;;1.40;;
35048;SDS011;21236;48.740;-3.446;2022-09-03T15:14:17;2.13;;;1.33;;
35048;SDS011;21236;48.740;-3.446;2022-09-03T15:24:48;6.53;;;1.70;;
35048;SDS011;21236;48.740;-3.446;2022-09-03T15:30:05;3.83;;;1.52;;
35048;SDS011;21236;48.740;-3.446;2022-09-03T15:35:05;8.15;;;2.08;;
35048;SDS011;21236;48.740;-3.446;2022-09-03T15:37:41;6.97;;;1.63;;
35048;SDS011;21236;48.740;-3.446;2022-09-03T15:42:56;4.85;;;1.55;;
35048;SDS011;21236;48.740;-3.446;2022-09-03T15:47:54;5.15;;;1.70;;
35048;SDS011;21236;48.740;-3.446;2022-09-03T15:53:04;9.10;;;1.95;;
35048;SDS011;21236;48.740;-3.446;2022-09-03T15:55:38;9.10;;;2.10;;
35048;SDS011;21236;48.740;-3.446;2022-09-03T16:01:10;6.55;;;1.75;;
35048;SDS011;21236;48.740;-3.446;2022-09-03T16:06:24;8.65;;;1.75;;
35048;SDS011;21236;48.740;-3.446;2022-09-03T16:09:01;4.28;;;1.77;;
35048;SDS011;21236;48.740;-3.446;2022-09-03T16:16:40;7.40;;;1.80;;
35048;SDS011;21236;48.740;-3.446;2022-09-03T16:19:25;5.68;;;1.73;;
35048;SDS011;21236;48.740;-3.446;2022-09-03T16:22:00;5.85;;;1.98;;
35048;SDS011;21236;48.740;-3.446;2022-09-03T16:24:37;8.40;;;1.73;;
35048;SDS011;21236;48.740;-3.446;2022-09-03T16:27:25;9.73;;;1.75;;
35048;SDS011;21236;48.740;-3.446;2022-09-03T16:35:14;7.60;;;1.75;;
35048;SDS011;21236;48.740;-3.446;2022-09-03T16:37:57;6.97;;;1.90;;
35048;SDS011;21236;48.740;-3.446;2022-09-03T16:42:58;5.85;;;2.08;;
35048;SDS011;21236;48.740;-3.446;2022-09-03T17:00:53;8.48;;;1.90;;
35048;SDS011;21236;48.740;-3.446;2022-09-03T17:03:31;6.38;;;2.20;;
35048;SDS011;21236;48.740;-3.446;2022-09-03T17:06:15;7.97;;;2.00;;
35048;SDS011;21236;48.740;-3.446;2022-09-03T17:08:52;4.97;;;2.05;;
35048;SDS011;21236;48.740;-3.446;2022-09-03T17:17:14;8.38;;;1.75;;
35048;SDS011;21236;48.740;-3.446;2022-09-03T17:19:52;3.95;;;1.75;;
35048;SDS011;21236;48.740;-3.446;2022-09-03T17:22:31;8.00;;;2.10;;
35048;SDS011;21236;48.740;-3.446;2022-09-03T17:24:58;9.80;;;2.13;;
35048;SDS011;21236;48.740;-3.446;2022-09-03T17:30:08;5.38;;;1.98;;
35048;SDS011;21236;48.740;-3.446;2022-09-03T17:35:16;5.20;;;1.70;;
35048;SDS011;21236;48.740;-3.446;2022-09-03T17:43:14;8.43;;;2.38;;
35048;SDS011;21236;48.740;-3.446;2022-09-03T17:48:15;8.32;;;2.30;;
35048;SDS011;21236;48.740;-3.446;2022-09-03T17:53:20;5.95;;;2.10;;
35048;SDS011;21236;48.740;-3.446;2022-09-03T17:55:58;6.18;;;1.85;;
35048;SDS011;21236;48.740;-3.446;2022-09-03T18:01:06;7.00;;;2.63;;
35048;SDS011;21236;48.740;-3.446;2022-09-03T18:03:57;8.82;;;2.22;;
35048;SDS011;21236;48.740;-3.446;2022-09-03T18:06:27;10.48;;;2.30;;
35048;SDS011;21236;48.740;-3.446;2022-09-03T18:08:56;10.77;;;2.28;;
35048;SDS011;21236;48.740;-3.446;2022-09-03T18:11:34;8.48;;;2.65;;
35048;SDS011;21236;48.740;-3.446;2022-09-03T18:16:36;10.00;;;2.63;;
35048;SDS011;21236;48.740;-3.446;2022-09-03T18:19:09;7.85;;;2.15;;
35048;SDS011;21236;48.740;-3.446;2022-09-03T18:21:43;9.45;;;2.50;;
35048;SDS011;21236;48.740;-3.446;2022-09-03T18:27:14;9.15;;;2.10;;
35048;SDS011;21236;48.740;-3.446;2022-09-03T18:30:05;10.40;;;2.40;;
35048;SDS011;21236;48.740;-3.446;2022-09-03T18:32:51;8.68;;;1.88;;
35048;SDS011;21236;48.740;-3.446;2022-09-03T18:35:36;8.15;;;2.30;;
35048;SDS011;21236;48.740;-3.446;2022-09-03T18:38:28;8.52;;;2.30;;
35048;SDS011;21236;48.740;-3.446;2022-09-03T18:44:20;9.20;;;2.78;;
35048;SDS011;21236;48.740;-3.446;2022-09-03T18:52:48;6.55;;;2.05;;
35048;SDS011;21236;48.740;-3.446;2022-09-03T19:01:37;14.32;;;2.75;;
35048;SDS011;21236;48.740;-3.446;2022-09-03T19:07:20;14.32;;;2.45;;
35048;SDS011;21236;48.740;-3.446;2022-09-03T19:10:13;10.32;;;2.50;;
35048;SDS011;21236;48.740;-3.446;2022-09-03T19:24:19;10.32;;;2.67;;
35048;SDS011;21236;48.740;-3.446;2022-09-03T19:33:07;7.57;;;2.20;;
35048;SDS011;21236;48.740;-3.446;2022-09-03T19:35:58;11.70;;;2.85;;
35048;SDS011;21236;48.740;-3.446;2022-09-03T19:39:03;9.02;;;2.60;;
35048;SDS011;21236;48.740;-3.446;2022-09-03T19:42:26;8.48;;;2.53;;
35048;SDS011;21236;48.740;-3.446;2022-09-03T19:45:11;11.73;;;3.00;;
35048;SDS011;21236;48.740;-3.446;2022-09-03T19:48:26;8.18;;;2.28;;
35048;SDS011;21236;48.740;-3.446;2022-09-03T19:51:16;10.32;;;2.30;;